Station: Smithton  

  Atmospheric Gas Attenuation - ITU Rec 676-11   ----------------- dB/100km -----------------
Date Time Temp RH % AH g/m3 Dew Point Wind Direction Speed kph Gust kph Barometer mB Rainfall Since 9am 24GHz 47GHz 76GHz 122GHz 134GHz 241GHz
06/09 21:50 10.5 92 8.92 9.3 17 22 1020.4 0.2 20.4 27.7 43.2 113.4 107.8 370.8
06/09 21:40 10.8 92 9.1 9.6 17 20 1020.4 0.2 20.8 27.9 43.8 115.0 109.9 378.2
06/09 21:30 10.7 92 9.04 9.5 20 28 1020.3 0.2 20.7 27.8 43.6 114.4 109.2 375.7
06/09 21:20 10.9 93 9.25 9.8 20 28 1020.1 0.2 21.1 28.1 44.4 116.5 111.8 385.0
06/09 21:10 11 93 9.31 9.9 24 32 1020 0.2 21.2 28.2 44.6 117.0 112.5 387.5
06/09 21:00 11.1 94 9.47 10.2 22 30 1020 0.2 21.6 28.4 45.2 118.7 114.7 394.9
06/09 20:50 11 94 9.41 10.1 22 32 1019.9 0.2 21.5 28.4 45.0 118.2 113.9 392.4
06/09 20:40 11.1 94 9.47 10.2 19 24 1019.8 0.2 21.6 28.4 45.2 118.7 114.6 394.8
06/09 20:30 11.1 94 9.47 10.2 19 24 1019.6 0.2 21.6 28.4 45.2 118.7 114.6 394.8
06/09 20:20 11.1 93 9.37 10 22 32 1019.5 0.2 21.4 28.3 44.7 117.5 113.2 389.8
06/09 20:10 11.1 93 9.37 10 19 26 1019.4 0.2 21.4 28.2 44.7 117.5 113.2 389.7
06/09 20:00 11.2 93 9.43 10.1 19 24 1019.4 0.2 21.5 28.3 44.9 118.0 113.9 392.2
06/09 19:50 11.2 93 9.43 10.1 19 26 1019.5 0.2 21.5 28.3 44.9 118.1 113.9 392.2
06/09 19:40 11.2 92 9.33 10 17 24 1019.4 0.2 21.3 28.1 44.5 116.9 112.5 387.3
06/09 19:30 11.3 92 9.39 10 15 20 1019.3 0.2 21.4 28.2 44.7 117.4 113.2 389.7
06/09 19:20 11.4 92 9.44 10.1 15 19 1019.4 0.2 21.5 28.3 44.9 117.9 113.7 391.7
06/09 19:10 11.4 92 9.44 10.1 17 20 1019.4 0.2 21.5 28.3 44.9 117.9 113.7 391.7
06/09 19:00 11.4 92 9.44 10.1 17 20 1019.3 0.2 21.5 28.3 44.9 117.8 113.7 391.7
06/09 18:50 11.4 91 9.34 10 17 22 1019.2 0.2 21.3 28.1 44.4 116.7 112.3 386.7
06/09 18:40 11.5 91 9.4 10.1 19 28 1019.2 0.2 21.4 28.2 44.6 117.2 113.0 389.2
06/09 18:30 11.8 91 9.58 10.4 17 24 1019.2 0.2 21.8 28.4 45.2 118.8 115.1 396.5
06/09 18:20 11.8 90 9.47 10.2 11 15 1019.2 0.2 21.5 28.2 44.8 117.6 113.5 391.1
06/09 18:10 11.8 89 9.37 10 13 17 1019.2 0.2 21.3 28.0 44.3 116.4 112.1 386.2
06/09 18:00 11.9 89 9.43 10.1 15 20 1019.1 0.2 21.5 28.1 44.5 116.9 112.8 388.6
06/09 17:50 12.1 88 9.44 10.2 15 19 1019.2 0.2 21.5 28.0 44.5 116.8 112.7 388.1
06/09 17:40 12.4 88 9.62 10.5 15 17 1019 0.2 21.8 28.2 45.0 118.3 114.7 395.3
06/09 17:30 12.4 86 9.4 10.1 15 20 1018.9 0.2 21.4 27.9 44.1 115.8 111.6 384.6
06/09 17:20 12.5 85 9.35 10 13 19 1019 0.2 21.3 27.8 43.8 115.1 110.8 381.7
06/09 17:10 12.8 83 9.3 10 19 26 1019 0.2 21.1 27.6 43.5 114.1 109.7 377.8
06/09 17:00 13.1 81 9.24 9.9 22 28 1019 0.2 21.0 27.4 43.0 113.0 108.4 373.5
06/09 16:50 13.5 76 8.89 9.4 20 30 1018.9 0.2 20.2 26.7 41.4 108.6 103.1 354.9
06/09 16:40 13.8 75 8.94 9.5 17 20 1018.9 0.2 20.3 26.7 41.4 108.7 103.4 355.9
06/09 16:30 13.9 74 8.87 9.3 19 24 1019 0.2 20.2 26.5 41.1 107.8 102.3 352.2
06/09 16:20 14.3 73 8.97 9.5 22 28 1018.9 0.2 20.3 26.6 41.3 108.4 103.1 355.1
06/09 16:10 14.6 70 8.76 9.2 20 30 1018.8 0.2 19.9 26.1 40.3 105.7 99.9 344.0
06/09 16:00 14.7 69 8.69 9.1 24 32 1018.8 0.2 19.7 26.0 40.0 104.8 98.9 340.3
06/09 15:50 14.7 70 8.81 9.3 26 33 1018.8 0.2 20.0 26.2 40.4 106.1 100.5 345.8
06/09 15:40 14.7 70 8.81 9.3 24 32 1018.8 0.2 20.0 26.2 40.4 106.1 100.5 345.8
06/09 15:30 15.3 72 9.4 10.3 20 28 1018.6 0.2 21.2 27.0 42.5 111.6 107.5 370.4
06/09 15:20 14.7 72 9.07 9.7 22 32 1018.6 0.2 20.5 26.6 41.5 108.9 103.9 357.8
06/09 15:10 14.8 72 9.12 9.8 24 28 1018.6 0.2 20.6 26.6 41.6 109.3 104.4 359.7
06/09 15:00 14.4 70 8.65 9 24 30 1018.4 0.2 19.7 26.0 39.9 104.7 98.7 339.6
06/09 14:50 14.8 71 8.99 9.6 24 30 1018.3 0.2 20.4 26.4 41.1 107.8 102.7 353.6
06/09 14:40 15.2 71 9.22 10 24 30 1018.2 0.2 20.8 26.7 41.8 109.7 105.2 362.4
06/09 14:30 15.4 71 9.33 10.2 22 28 1018.2 0.2 21.1 26.8 42.1 110.6 106.4 366.6
06/09 14:20 15.5 70 9.25 10.1 26 32 1018.2 0.2 20.9 26.6 41.8 109.6 105.2 362.4
06/09 14:10 15.7 70 9.37 10.2 28 35 1018.2 0.2 21.1 26.8 42.1 110.7 106.5 367.1
06/09 14:00 16 70 9.54 10.5 26 32 1018.1 0.2 21.5 27.0 42.7 112.1 108.3 373.5
06/09 13:50 16.1 71 9.73 10.8 30 35 1018.1 0.2 21.9 27.2 43.4 114.0 110.7 381.9
06/09 13:40 16.4 71 9.91 11.1 26 32 1018.1 0.2 22.2 27.4 43.9 115.5 112.7 388.8
06/09 13:30 16.9 72 10.36 11.8 26 32 1018.1 0.2 23.2 28.0 45.5 119.6 118.0 407.5
06/09 13:20 16.9 71 10.21 11.6 24 32 1018.1 0.2 22.9 27.8 44.9 118.0 116.0 400.4
06/09 13:10 16.7 72 10.23 11.6 22 28 1018 0.2 22.9 27.9 45.1 118.5 116.6 402.3
06/09 13:00 16.3 69 9.57 10.6 20 26 1018 0.2 21.5 26.9 42.6 111.9 108.3 373.4
06/09 12:50 16.3 70 9.71 10.8 20 26 1018 0.2 21.8 27.1 43.2 113.4 110.2 380.0
06/09 12:40 16.7 69 9.81 11 17 24 1018 0.2 22.0 27.2 43.4 114.0 110.9 382.7
06/09 12:30 16.8 69 9.86 11.1 15 20 1018 0.2 22.1 27.2 43.5 114.3 111.5 384.5
06/09 12:20 16.7 70 9.95 11.2 17 24 1018.1 0.2 22.3 27.4 43.9 115.5 112.8 389.2
06/09 12:10 16.2 69 9.51 10.5 17 22 1018.1 0.2 21.4 26.8 42.4 111.4 107.7 371.2
06/09 12:00 16.2 71 9.79 10.9 15 20 1018.1 0.2 22.0 27.3 43.6 114.5 111.4 384.2
06/09 11:50 16.3 72 9.99 11.2 11 20 1018.1 0 22.4 27.6 44.3 116.5 113.9 393.1
06/09 11:40 16.2 72 9.93 11.2 13 17 1018.2 0 22.3 27.5 44.1 116.0 113.3 390.8
06/09 11:30 15.6 72 9.57 10.6 15 22 1018.2 0 21.6 27.1 43.0 113.0 109.3 376.9
06/09 11:20 15.7 74 9.9 11.1 17 24 1018.1 0 22.3 27.6 44.3 116.4 113.6 391.9
06/09 11:10 15.7 74 9.9 11.1 15 22 1018.1 0 22.3 27.6 44.3 116.4 113.6 391.9
06/09 11:00 15.4 74 9.72 10.8 19 24 1018 0 21.9 27.4 43.7 114.9 111.6 384.8
06/09 10:50 15.3 76 9.92 11.1 19 24 1018 0 22.3 27.8 44.6 117.2 114.4 394.8
06/09 10:40 15.1 75 9.68 10.7 19 22 1018 0 21.8 27.5 43.7 114.9 111.5 384.4
06/09 10:30 15 76 9.75 10.8 20 26 1018 0 22.0 27.6 44.1 115.8 112.6 388.2
06/09 10:20 14.7 77 9.69 10.7 20 26 1017.8 0 21.9 27.6 44.0 115.5 112.2 386.8
06/09 10:10 14.5 77 9.58 10.5 19 24 1017.8 0 21.6 27.5 43.6 114.6 111.0 382.5
06/09 10:00 14.3 79 9.71 10.7 20 28 1017.8 0 21.9 27.7 44.3 116.4 113.0 389.7
06/09 09:50 14.3 80 9.83 10.9 24 32 1017.7 0 22.2 27.9 44.8 117.7 114.7 395.5
06/09 09:40 14.1 81 9.83 10.9 22 30 1017.6 0 22.2 28.0 44.9 118.0 115.0 396.4
06/09 09:30 13.8 82 9.77 10.8 24 28 1017.6 0 22.1 28.0 44.8 117.8 114.6 395.1
06/09 09:20 13.6 84 9.89 11 24 30 1017.5 0 22.4 28.3 45.4 119.4 116.5 401.9
06/09 09:10 13.4 85 9.88 10.9 24 30 1017.5 0 22.3 28.3 45.5 119.6 116.7 402.4
06/09 09:00 13.3 88 10.17 11.4 24 32 1017.3 0 23.0 28.8 46.8 123.0 120.9 417.1
06/09 08:50 13.1 89 10.16 11.3 22 28 1017.3 8.2 23.0 28.9 46.9 123.2 121.1 417.7
06/09 08:40 13 91 10.32 11.6 17 20 1017.3 8.2 23.3 29.2 47.6 125.2 123.5 426.2
06/09 08:30 12.5 91 10.01 11.1 17 19 1017.2 8.2 22.7 28.8 46.6 122.4 119.9 413.5
06/09 08:20 12.3 91 9.88 10.9 15 17 1017.2 8.2 22.4 28.7 46.1 121.3 118.4 408.1
06/09 08:10 12 92 9.81 10.7 13 17 1017.1 8.2 22.3 28.6 46.0 120.9 117.8 406.2
06/09 08:00 11.8 93 9.79 10.7 13 17 1016.9 8.2 22.2 28.7 46.0 121.0 117.8 406.2
06/09 07:50 11.5 93 9.61 10.4 15 19 1016.6 8.2 21.9 28.4 45.4 119.3 115.7 398.7
06/09 07:40 11.2 93 9.43 10.1 17 20 1016.4 8.2 21.5 28.2 44.8 117.7 113.6 391.3
06/09 07:30 10.9 93 9.25 9.8 17 20 1016.1 8.2 21.1 28.0 44.2 116.1 111.5 383.8
06/09 07:20 10.4 93 8.97 9.3 15 17 1015.9 8.2 20.6 27.6 43.2 113.6 108.2 372.4
06/09 07:10 10.2 93 8.85 9.1 13 15 1015.8 8.2 20.3 27.5 42.8 112.5 106.8 367.4
06/09 07:00 10.1 93 8.8 9 11 15 1015.7 8.2 20.2 27.4 42.7 112.0 106.2 365.4
06/09 06:50 9.6 92 8.43 8.4 11 15 1015.3 8.2 19.4 26.9 41.3 108.5 101.7 349.5
06/09 06:40 10.3 93 8.91 9.2 13 22 1015 8.2 20.4 27.5 43.0 112.9 107.4 369.7
06/09 06:30 10.3 93 8.91 9.2 17 26 1014.6 8.2 20.4 27.5 43.0 112.9 107.4 369.5
06/09 06:20 10.4 93 8.97 9.3 19 26 1014.5 8.2 20.6 27.6 43.2 113.4 108.1 372.0
06/09 06:10 10.4 93 8.97 9.3 15 20 1014.4 8.2 20.6 27.6 43.2 113.4 108.1 371.9
06/09 06:00 10.4 92 8.87 9.2 17 20 1014.2 8.2 20.3 27.4 42.7 112.2 106.7 367.0
06/09 05:50 10.7 92 9.04 9.5 17 26 1014 8.2 20.7 27.6 43.3 113.7 108.6 373.8
06/09 05:40 10.8 92 9.1 9.6 17 22 1014 8.2 20.8 27.7 43.5 114.3 109.3 376.3
06/09 05:30 10.8 93 9.19 9.7 17 22 1014 8.2 21.0 27.8 43.9 115.3 110.6 380.7
06/09 05:20 10.6 93 9.08 9.5 15 22 1013.7 8.2 20.8 27.7 43.5 114.3 109.3 376.2

Last Refresh: 06-Sep-2026 21:32:11

Bureau of Meteorology